Makarska, Croatia

3:54 PM CET on December 22, 2014 (GMT +0100)
Kostanje-Poljica | Change Station
CLOSE
Current Station
Personal Weather Station
Location: Kostanje, SPLITSKO-DALMATINSKA žUPANIJA
Elevation: 728 ft
Nearby Weather Stations

Elev 728 ft 43.44 °N, 16.83 °E | Updated 3 seconds ago

Partly Cloudy
Partly Cloudy
52.2 °F
Feels Like 52.2 °F
N
3.6
Wind Variable Wind from WNW
Gusts 3.6 mph

Today
High -- | Low -- °F
--% Chance of Precip.
Yesterday
High -- | Low -- °F
Precip. -- in
7:21 AM 4:19 PM
New Moon, 0% visible
Pressure 30.36 in
Visibility 6.2 miles
Clouds Few 5000 ft
Dew Point 40 °F
Humidity 62%
Rainfall 0.00 in
Snow Depth Not available.
UV 0 out of 12
Pollen Not available.
Air Quality Not available.
Flu Activity Not available.
METAR LQMO 221500Z 26003KT 9999 FEW050 09/M01 Q1028

More Conditions Fewer Conditions

Pressure 30.36 in
Visibility 6.2 miles
Clouds Few 5000 ft
Dew Point 40 °F
Humidity 62%
Rainfall 0.00 in
Snow Depth Not available.
UV 0 out of 12
Pollen Not available.
Air Quality Not available.
Flu Activity Not available.
METAR LQMO 221500Z 26003KT 9999 FEW050 09/M01 Q1028

More Conditions Fewer Conditions

10-Day Weather Forecast

Almanac

Astronomy

Dec. 22, 2014 Rise Set
Actual Time
Civil Twilight
Nautical Twilight
Astronomical Twilight
Moon
Length of Visible Light
Length of Day
Tomorrow will be .
, % of the Moon is Illuminated

Today's Extremes

Country Highs Country Lows

Community

WunderPhotos

Upload Photos

1,779,608 photos uploaded!

WunderBlogs® & News

Nearby

Air Quality

  Air Quality AQ Index Pollutant
Not available.

Snow Depth

Station Depth Elevation

Earthquake Activity

City Distance Mag. Time & Date
Minimum magnitude displayed is 2.5.

Coastal Water Temperatures

Place Temperature

Nearby Weather Stations